createdAt,value
2022-11-21T00:30:46.918Z,3.22
2022-11-21T00:33:13.481Z,2.69
2022-11-21T00:35:40.048Z,2.74
2022-11-21T01:09:41.368Z,2.04
2022-11-21T01:12:08.114Z,2.08
2022-11-21T01:14:34.684Z,2.30
2022-11-21T01:17:01.211Z,2.68
2022-11-21T01:19:27.725Z,2.78
2022-11-21T01:21:54.262Z,2.25
2022-11-21T01:24:20.771Z,2.59
2022-11-21T01:26:49.113Z,2.56
2022-11-21T01:29:16.950Z,2.43
2022-11-21T01:32:22.211Z,2.20
2022-11-21T01:35:13.979Z,2.17
2022-11-21T01:37:47.376Z,1.88
2022-11-21T01:40:15.083Z,1.81
2022-11-21T01:42:52.261Z,2.08
2022-11-21T01:45:52.944Z,2.50
2022-11-21T01:48:23.091Z,2.68
2022-11-21T01:50:49.687Z,2.80
2022-11-21T03:40:01.121Z,2.61
2022-11-21T03:42:27.818Z,2.64
2022-11-21T03:44:54.354Z,2.66
2022-11-21T03:47:20.906Z,2.51
2022-11-21T03:49:47.443Z,2.59
2022-11-21T04:00:36.942Z,2.00
2022-11-21T04:03:03.674Z,1.89
2022-11-21T04:05:55.511Z,2.24
2022-11-21T04:08:22.111Z,2.43
2022-11-21T04:10:56.869Z,2.52
2022-11-21T04:51:45.126Z,2.25
2022-11-21T05:10:19.068Z,2.43
2022-11-21T07:15:33.275Z,2.69
2022-11-21T07:17:59.978Z,2.68
2022-11-21T07:20:26.615Z,2.97
2022-11-21T07:31:34.338Z,3.92
2022-11-21T07:34:00.871Z,3.79
2022-11-21T07:36:27.437Z,3.78
2022-11-21T07:38:53.981Z,3.56
2022-11-21T07:41:20.501Z,3.47
2022-11-21T07:43:47.031Z,3.64
2022-11-21T07:46:13.576Z,3.63
2022-11-21T07:48:40.096Z,3.77
2022-11-21T07:51:06.654Z,3.92
2022-11-21T07:53:33.423Z,3.99
2022-11-21T07:56:00.220Z,3.78
2022-11-21T07:58:26.950Z,3.94
2022-11-21T08:00:53.842Z,3.78
2022-11-21T08:03:20.587Z,3.96
2022-11-21T08:05:47.312Z,4.03
2022-11-21T08:08:16.564Z,4.23
2022-11-21T08:10:45.484Z,4.30
2022-11-21T08:13:12.950Z,4.40
2022-11-21T08:15:40.347Z,4.53
2022-11-21T08:18:12.766Z,4.35
2022-11-21T08:20:39.367Z,4.09
2022-11-21T08:23:06.929Z,4.22
2022-11-21T08:25:36.785Z,4.43
2022-11-21T08:28:04.232Z,4.60
2022-11-21T08:30:31.618Z,4.65
2022-11-21T08:32:59.035Z,4.83
2022-11-21T08:58:39.208Z,5.62
2022-11-21T09:01:06.066Z,5.82
2022-11-21T09:03:32.911Z,5.66
2022-11-21T09:06:00.178Z,5.67
2022-11-21T09:08:26.748Z,6.06
2022-11-21T09:30:05.505Z,6.99
2022-11-21T09:32:41.448Z,6.94
2022-11-21T09:35:20.718Z,6.98
2022-11-21T09:37:54.546Z,6.62
2022-11-21T10:44:15.627Z,8.70
2022-11-21T10:47:12.666Z,8.56
2022-11-21T10:49:40.501Z,8.64
2022-11-21T10:52:19.320Z,8.70
2022-11-21T10:55:02.677Z,8.93
2022-11-21T10:57:33.108Z,8.82
2022-11-21T11:00:11.056Z,9.06
2022-11-21T11:57:17.324Z,7.90
2022-11-21T12:10:49.342Z,7.46
2022-11-21T14:16:47.129Z,7.43
2022-11-21T14:19:19.574Z,7.43
2022-11-21T14:21:47.449Z,6.97
2022-11-21T14:24:18.374Z,7.46
2022-11-21T14:47:26.849Z,7.38
2022-11-21T14:49:59.764Z,7.30
2022-11-21T14:52:34.026Z,7.53
2022-11-21T14:58:31.328Z,7.46
2022-11-21T15:01:20.459Z,7.29
2022-11-21T16:54:55.085Z,7.24
2022-11-21T16:57:21.730Z,7.23
2022-11-21T16:59:48.377Z,7.48
2022-11-21T17:02:14.920Z,7.57
2022-11-21T17:04:48.860Z,7.53
2022-11-21T17:44:55.557Z,7.28
2022-11-21T17:47:28.056Z,7.33
2022-11-21T18:00:59.605Z,7.41
2022-11-21T18:03:37.248Z,7.31
2022-11-21T18:06:15.212Z,7.34
2022-11-21T18:25:14.922Z,7.29
2022-11-21T18:27:47.597Z,7.20
2022-11-21T18:30:19.252Z,7.27
2022-11-21T18:32:49.143Z,7.23
2022-11-21T18:35:18.812Z,7.16
2022-11-21T18:37:45.352Z,7.15
2022-11-21T18:40:12.701Z,7.12
2022-11-21T18:42:39.354Z,7.07
2022-11-21T18:45:06.756Z,7.05
2022-11-21T18:47:33.373Z,7.10
2022-11-21T18:50:00.071Z,7.16
2022-11-21T18:52:27.356Z,7.17
2022-11-21T18:54:54.071Z,7.09
2022-11-21T18:57:20.616Z,6.98
2022-11-21T18:59:47.227Z,6.96
2022-11-21T19:02:19.865Z,6.98
2022-11-21T19:04:49.576Z,6.99
2022-11-21T19:07:18.487Z,6.89
2022-11-21T19:26:29.985Z,6.34
2022-11-21T19:29:00.445Z,6.23
2022-11-21T19:31:30.152Z,5.50
2022-11-21T19:33:59.894Z,5.34
2022-11-21T19:44:33.630Z,5.69
2022-11-21T19:47:05.487Z,5.44
2022-11-21T19:49:33.882Z,4.87
2022-11-21T20:03:41.976Z,5.05
2022-11-21T20:09:22.717Z,4.41
2022-11-21T20:18:02.026Z,5.17
2022-11-21T20:20:28.615Z,5.38
2022-11-21T20:22:57.299Z,5.42
2022-11-21T20:25:23.836Z,5.32
2022-11-21T20:27:50.378Z,5.62
2022-11-21T20:33:12.994Z,5.89
2022-11-21T20:35:39.913Z,5.84
2022-11-21T20:38:06.445Z,5.97
2022-11-21T20:41:31.437Z,6.12
2022-11-21T21:24:38.400Z,6.00
2022-11-21T21:27:04.991Z,6.19
2022-11-21T21:29:31.886Z,6.16
2022-11-21T21:31:58.641Z,6.23
2022-11-21T21:34:25.377Z,6.30
2022-11-21T21:39:24.624Z,5.97
2022-11-21T21:41:51.179Z,5.91
2022-11-21T21:44:17.754Z,5.86
2022-11-21T22:11:58.488Z,5.50
2022-11-21T22:27:31.852Z,5.40
2022-11-21T22:32:47.346Z,5.19
2022-11-21T22:35:13.913Z,5.33
2022-11-21T22:37:40.447Z,5.27
2022-11-21T22:40:35.049Z,5.23
2022-11-21T22:43:25.499Z,5.24
2022-11-21T22:46:12.156Z,5.09
2022-11-21T22:48:38.995Z,5.15
2022-11-21T22:51:05.917Z,4.83
2022-11-21T22:53:37.045Z,5.17
2022-11-21T22:56:09.377Z,5.24
2022-11-21T22:58:38.373Z,5.37
2022-11-21T23:01:10.525Z,5.51
2022-11-21T23:03:37.123Z,5.57
2022-11-21T23:06:06.684Z,5.51
2022-11-21T23:08:37.231Z,5.11
2022-11-21T23:11:14.232Z,5.48
2022-11-21T23:13:42.811Z,5.53
2022-11-21T23:16:10.467Z,5.46
2022-11-21T23:18:37.214Z,5.22
2022-11-21T23:21:04.522Z,4.86
2022-11-21T23:23:31.282Z,4.48
2022-11-21T23:25:58.125Z,5.09
2022-11-21T23:28:24.687Z,5.29
2022-11-21T23:34:56.034Z,5.58
2022-11-21T23:37:22.580Z,5.62
2022-11-21T23:39:49.115Z,5.63
2022-11-21T23:42:15.647Z,5.40
2022-11-21T23:45:13.445Z,5.16
2022-11-21T23:47:40.044Z,5.49
2022-11-21T23:50:07.106Z,5.65
2022-11-21T23:52:33.764Z,5.54
2022-11-21T23:55:00.311Z,5.39
2022-11-21T23:57:26.870Z,5.30
